createdAt,value
2022-08-26T00:00:54.585Z,1011.55
2022-08-26T00:01:54.949Z,1011.54
2022-08-26T00:02:55.140Z,1011.55
2022-08-26T00:03:55.509Z,1011.52
2022-08-26T00:04:55.691Z,1011.52
2022-08-26T00:05:56.025Z,1011.52
2022-08-26T00:06:56.370Z,1011.48
2022-08-26T00:07:56.684Z,1011.46
2022-08-26T00:08:57.045Z,1011.49
2022-08-26T00:09:57.232Z,1011.49
2022-08-26T00:10:57.526Z,1011.50
2022-08-26T00:11:57.827Z,1011.48
2022-08-26T00:12:58.166Z,1011.48
2022-08-26T00:13:58.495Z,1011.42
2022-08-26T00:14:58.826Z,1011.47
2022-08-26T00:15:59.100Z,1011.46
2022-08-26T00:16:59.518Z,1011.44
2022-08-26T00:17:59.739Z,1011.47
2022-08-26T00:19:00.093Z,1011.48
2022-08-26T00:20:00.408Z,1011.43
2022-08-26T00:21:00.721Z,1011.45
2022-08-26T00:22:02.007Z,1011.49
2022-08-26T00:23:01.328Z,1011.43
2022-08-26T00:24:01.520Z,1011.49
2022-08-26T00:25:01.843Z,1011.47
2022-08-26T00:26:02.181Z,1011.45
2022-08-26T00:27:02.503Z,1011.46
2022-08-26T00:28:02.823Z,1011.40
2022-08-26T00:29:03.160Z,1011.42
2022-08-26T00:30:03.434Z,1011.39
2022-08-26T00:31:03.733Z,1011.41
2022-08-26T00:32:04.175Z,1011.43
2022-08-26T00:33:04.384Z,1011.49
2022-08-26T00:34:04.698Z,1011.46
2022-08-26T00:35:04.979Z,1011.46
2022-08-26T00:36:05.246Z,1011.46
2022-08-26T00:37:08.966Z,1011.45
2022-08-26T00:38:05.906Z,1011.41
2022-08-26T00:39:06.167Z,1011.48
2022-08-26T00:40:06.491Z,1011.47
2022-08-26T00:41:06.808Z,1011.44
2022-08-26T00:42:07.121Z,1011.44
2022-08-26T00:43:09.490Z,1011.43
2022-08-26T00:44:07.781Z,1011.44
2022-08-26T00:45:11.704Z,1011.40
2022-08-26T00:46:08.481Z,1011.43
2022-08-26T00:47:08.702Z,1011.42
2022-08-26T00:48:09.027Z,1011.44
2022-08-26T00:49:12.112Z,1011.40
2022-08-26T00:50:09.674Z,1011.40
2022-08-26T00:51:09.933Z,1011.30
2022-08-26T00:52:12.127Z,1011.34
2022-08-26T00:53:10.572Z,1011.34
2022-08-26T00:54:10.925Z,1011.34
2022-08-26T00:55:11.204Z,1011.34
2022-08-26T00:56:11.524Z,1011.33
2022-08-26T00:57:16.047Z,1011.36
2022-08-26T00:58:12.109Z,1011.28
2022-08-26T00:59:12.438Z,1011.36
2022-08-26T01:00:12.766Z,1011.32
2022-08-26T01:01:13.178Z,1011.30
2022-08-26T01:02:20.160Z,1011.30
2022-08-26T01:03:14.679Z,1011.34
2022-08-26T01:04:13.960Z,1011.31
2022-08-26T01:05:14.297Z,1011.35
2022-08-26T01:06:14.631Z,1011.32
2022-08-26T01:07:14.959Z,1011.32
2022-08-26T01:08:15.293Z,1011.31
2022-08-26T01:09:15.540Z,1011.30
2022-08-26T01:10:15.862Z,1011.26
2022-08-26T01:11:16.183Z,1011.22
2022-08-26T01:12:16.453Z,1011.29
2022-08-26T01:13:17.742Z,1011.25
2022-08-26T01:14:17.053Z,1011.30
2022-08-26T01:15:17.398Z,1011.26
2022-08-26T01:16:17.728Z,1011.30
2022-08-26T01:17:18.034Z,1011.22
2022-08-26T01:18:18.351Z,1011.28
2022-08-26T01:19:18.704Z,1011.25
2022-08-26T01:20:18.895Z,1011.28
2022-08-26T01:21:19.234Z,1011.27
2022-08-26T01:22:19.515Z,1011.29
2022-08-26T01:23:21.630Z,1011.27
2022-08-26T01:24:20.097Z,1011.29
2022-08-26T01:25:20.412Z,1011.28
2022-08-26T01:26:20.737Z,1011.29
2022-08-26T01:27:21.048Z,1011.26
2022-08-26T01:28:21.366Z,1011.20
2022-08-26T01:29:21.702Z,1011.26
2022-08-26T01:30:22.033Z,1011.26
2022-08-26T01:31:22.396Z,1011.26
2022-08-26T01:32:22.591Z,1011.28
2022-08-26T01:33:22.909Z,1011.25
2022-08-26T01:34:23.161Z,1011.23
2022-08-26T01:35:23.434Z,1011.27
2022-08-26T01:36:23.773Z,1011.20
2022-08-26T01:37:24.085Z,1011.23
2022-08-26T01:38:24.405Z,1011.21
2022-08-26T01:39:24.713Z,1011.21
2022-08-26T01:40:25.039Z,1011.23
2022-08-26T01:41:27.193Z,1011.16
2022-08-26T01:42:25.508Z,1011.18
2022-08-26T01:43:25.819Z,1011.17
2022-08-26T01:44:26.151Z,1011.20
2022-08-26T01:45:26.530Z,1011.14
2022-08-26T01:46:26.791Z,1011.21
2022-08-26T01:47:26.995Z,1011.25
2022-08-26T01:48:27.303Z,1011.26
2022-08-26T01:49:27.630Z,1011.24
2022-08-26T01:50:30.471Z,1011.22
2022-08-26T01:51:28.270Z,1011.20
2022-08-26T01:52:28.580Z,1011.22
2022-08-26T01:53:28.900Z,1011.17
2022-08-26T01:54:29.250Z,1011.23
2022-08-26T01:55:32.989Z,1011.23
2022-08-26T01:56:33.249Z,1011.18
2022-08-26T01:57:30.142Z,1011.19
2022-08-26T01:58:30.493Z,1011.24
2022-08-26T01:59:30.832Z,1011.18
2022-08-26T02:00:31.171Z,1011.22
2022-08-26T02:01:31.524Z,1011.19
2022-08-26T02:02:31.815Z,1011.18
2022-08-26T02:03:32.184Z,1011.20
2022-08-26T02:04:32.525Z,1011.18
2022-08-26T02:05:32.781Z,1011.21
2022-08-26T02:06:33.103Z,1011.14
2022-08-26T02:07:33.396Z,1011.14
2022-08-26T02:08:33.695Z,1011.16
2022-08-26T02:09:34.035Z,1011.12
2022-08-26T02:10:35.357Z,1011.11
2022-08-26T02:11:34.656Z,1011.13
2022-08-26T02:12:35.007Z,1011.12
2022-08-26T02:13:35.337Z,1011.17
2022-08-26T02:14:35.658Z,1011.09
2022-08-26T02:15:36.966Z,1011.16
2022-08-26T02:16:36.314Z,1011.17
2022-08-26T02:17:36.531Z,1011.14
2022-08-26T02:18:36.778Z,1011.15
2022-08-26T02:19:37.136Z,1011.13
2022-08-26T02:20:37.450Z,1011.12
2022-08-26T02:21:37.782Z,1011.12
2022-08-26T02:22:38.020Z,1011.08
2022-08-26T02:23:38.339Z,1011.15
2022-08-26T02:24:38.681Z,1011.16
2022-08-26T02:25:38.988Z,1011.13
2022-08-26T02:26:39.333Z,1011.13
2022-08-26T02:27:39.642Z,1011.08
2022-08-26T02:28:39.976Z,1011.14
2022-08-26T02:29:40.304Z,1011.08
2022-08-26T02:30:40.648Z,1011.09
2022-08-26T02:31:40.989Z,1011.11
2022-08-26T02:32:41.435Z,1011.11
2022-08-26T02:33:43.197Z,1011.09
2022-08-26T02:34:41.975Z,1011.09
2022-08-26T02:35:42.300Z,1011.06
2022-08-26T02:36:42.634Z,1011.11
2022-08-26T02:37:42.948Z,1011.07
2022-08-26T02:38:43.286Z,1011.07
2022-08-26T02:39:43.679Z,1011.07
2022-08-26T02:40:43.910Z,1011.03
2022-08-26T02:41:45.292Z,1011.06
2022-08-26T02:42:44.538Z,1011.05
2022-08-26T02:43:44.851Z,1011.08
2022-08-26T02:44:45.199Z,1011.07
2022-08-26T02:45:45.511Z,1011.06
2022-08-26T02:46:47.017Z,1010.98
2022-08-26T02:47:46.072Z,1011.00
2022-08-26T02:48:46.371Z,1011.00
2022-08-26T02:49:47.369Z,1011.01
2022-08-26T02:50:46.909Z,1010.99
2022-08-26T02:51:47.255Z,1011.02
2022-08-26T02:52:47.572Z,1011.03
2022-08-26T02:53:47.893Z,1010.99
2022-08-26T02:54:48.243Z,1011.02
2022-08-26T02:55:48.504Z,1010.99
2022-08-26T02:56:48.824Z,1010.97
2022-08-26T02:57:49.154Z,1010.96
2022-08-26T02:58:49.425Z,1010.97
2022-08-26T02:59:49.748Z,1011.00
2022-08-26T03:00:53.423Z,1010.99
2022-08-26T03:01:50.414Z,1011.02
2022-08-26T03:02:50.720Z,1011.01
2022-08-26T03:03:51.027Z,1011.03
2022-08-26T03:04:57.345Z,1010.96
2022-08-26T03:05:52.620Z,1011.01
2022-08-26T03:06:52.751Z,1010.96
2022-08-26T03:07:52.193Z,1010.94
2022-08-26T03:08:52.551Z,1010.89
2022-08-26T03:09:52.759Z,1010.92
2022-08-26T03:10:53.021Z,1010.92
2022-08-26T03:11:53.340Z,1010.89
2022-08-26T03:12:53.682Z,1010.90
2022-08-26T03:13:53.993Z,1010.87
2022-08-26T03:14:54.326Z,1010.89
2022-08-26T03:15:54.669Z,1010.90
2022-08-26T03:16:54.962Z,1010.88
2022-08-26T03:17:55.233Z,1010.88
2022-08-26T03:18:55.553Z,1010.86
2022-08-26T03:19:57.374Z,1010.87
2022-08-26T03:20:56.203Z,1010.83
2022-08-26T03:21:57.952Z,1010.84
2022-08-26T03:22:56.816Z,1010.84
2022-08-26T03:23:58.754Z,1010.77
2022-08-26T03:24:57.406Z,1010.80
2022-08-26T03:25:57.606Z,1010.76
2022-08-26T03:26:57.934Z,1010.77
2022-08-26T03:27:59.424Z,1010.73
2022-08-26T03:28:58.557Z,1010.74
2022-08-26T03:29:58.890Z,1010.78
2022-08-26T03:30:59.257Z,1010.77
2022-08-26T03:31:59.570Z,1010.74
2022-08-26T03:32:59.888Z,1010.78
2022-08-26T03:34:00.190Z,1010.74
2022-08-26T03:35:00.528Z,1010.79
2022-08-26T03:36:00.851Z,1010.76
2022-08-26T03:37:01.192Z,1010.74
2022-08-26T03:38:01.522Z,1010.78
2022-08-26T03:39:01.773Z,1010.72
2022-08-26T03:40:02.126Z,1010.80
2022-08-26T03:41:02.331Z,1010.80
2022-08-26T03:42:02.594Z,1010.78
2022-08-26T03:43:02.938Z,1010.76
2022-08-26T03:44:03.183Z,1010.78
2022-08-26T03:45:03.472Z,1010.75
2022-08-26T03:46:03.809Z,1010.75
2022-08-26T03:47:04.054Z,1010.81
2022-08-26T03:48:04.327Z,1010.76
2022-08-26T03:49:04.687Z,1010.78
2022-08-26T03:50:05.016Z,1010.77
2022-08-26T03:51:05.214Z,1010.76
2022-08-26T03:52:05.716Z,1010.72
2022-08-26T03:53:07.452Z,1010.78
2022-08-26T03:54:08.211Z,1010.79
2022-08-26T03:55:06.473Z,1010.84
2022-08-26T03:56:06.690Z,1010.76
2022-08-26T03:57:07.028Z,1010.79
2022-08-26T03:58:07.249Z,1010.78
2022-08-26T03:59:07.804Z,1010.79
2022-08-26T04:00:07.894Z,1010.78
2022-08-26T04:01:08.132Z,1010.82
2022-08-26T04:02:11.636Z,1010.81
2022-08-26T04:03:09.950Z,1010.76
2022-08-26T04:04:09.009Z,1010.77
2022-08-26T04:05:09.231Z,1010.74
2022-08-26T04:06:09.581Z,1010.77
2022-08-26T04:07:09.820Z,1010.72
2022-08-26T04:08:10.142Z,1010.74
2022-08-26T04:09:10.473Z,1010.74
2022-08-26T04:10:10.694Z,1010.72
2022-08-26T04:11:10.955Z,1010.77
2022-08-26T04:12:11.233Z,1010.70
2022-08-26T04:13:11.604Z,1010.71
2022-08-26T04:14:11.879Z,1010.75
2022-08-26T04:15:12.107Z,1010.71
2022-08-26T04:16:12.373Z,1010.72
2022-08-26T04:17:12.575Z,1010.75
2022-08-26T04:18:12.916Z,1010.73
2022-08-26T04:19:13.286Z,1010.78
2022-08-26T04:20:13.529Z,1010.75
2022-08-26T04:21:15.393Z,1010.73
2022-08-26T04:22:14.178Z,1010.73
2022-08-26T04:23:14.422Z,1010.75
2022-08-26T04:24:14.688Z,1010.76
2022-08-26T04:25:14.917Z,1010.74
2022-08-26T04:26:15.269Z,1010.77
2022-08-26T04:27:15.509Z,1010.74
2022-08-26T04:28:15.810Z,1010.74
2022-08-26T04:29:16.052Z,1010.71
2022-08-26T04:30:16.721Z,1010.70
2022-08-26T04:31:16.660Z,1010.68
2022-08-26T04:32:16.832Z,1010.66
2022-08-26T04:33:17.081Z,1010.66
2022-08-26T04:34:18.412Z,1010.68
2022-08-26T04:35:17.724Z,1010.63
2022-08-26T04:36:20.192Z,1010.63
2022-08-26T04:37:18.301Z,1010.62
2022-08-26T04:38:18.545Z,1010.64
2022-08-26T04:39:18.822Z,1010.63
2022-08-26T04:40:19.136Z,1010.63
2022-08-26T04:41:19.375Z,1010.68
2022-08-26T04:42:26.158Z,1010.67
2022-08-26T04:43:20.977Z,1010.64
2022-08-26T04:44:20.288Z,1010.66
2022-08-26T04:45:22.683Z,1010.65
2022-08-26T04:46:20.962Z,1010.67
2022-08-26T04:47:21.232Z,1010.62
2022-08-26T04:48:21.486Z,1010.65
2022-08-26T04:49:21.749Z,1010.62
2022-08-26T04:50:21.999Z,1010.63
2022-08-26T04:51:22.275Z,1010.61
2022-08-26T04:52:22.529Z,1010.57
2022-08-26T04:53:22.820Z,1010.55
2022-08-26T04:54:23.142Z,1010.58
2022-08-26T04:55:25.290Z,1010.59
2022-08-26T04:56:24.729Z,1010.59
2022-08-26T04:57:24.045Z,1010.63
2022-08-26T04:58:24.316Z,1010.60
2022-08-26T04:59:24.654Z,1010.60
2022-08-26T05:00:24.893Z,1010.60
2022-08-26T05:01:25.149Z,1010.55
2022-08-26T05:02:25.403Z,1010.48
2022-08-26T05:03:25.654Z,1010.50
2022-08-26T05:04:26.136Z,1010.44
2022-08-26T05:05:26.235Z,1010.52
2022-08-26T05:06:26.564Z,1010.46
2022-08-26T05:07:26.837Z,1010.53
2022-08-26T05:08:27.089Z,1010.55
2022-08-26T05:09:27.328Z,1010.53
2022-08-26T05:10:27.596Z,1010.58
2022-08-26T05:11:27.897Z,1010.54
2022-08-26T05:12:28.214Z,1010.54
2022-08-26T05:13:28.450Z,1010.56
2022-08-26T05:14:28.818Z,1010.53
2022-08-26T05:15:29.059Z,1010.54
2022-08-26T05:16:29.309Z,1010.57
2022-08-26T05:17:29.624Z,1010.54
2022-08-26T05:18:29.889Z,1010.52
2022-08-26T05:19:30.170Z,1010.57
2022-08-26T05:20:30.415Z,1010.60
2022-08-26T05:21:30.652Z,1010.58
2022-08-26T05:22:30.922Z,1010.58
2022-08-26T05:23:31.192Z,1010.58
2022-08-26T05:24:31.482Z,1010.60
2022-08-26T05:25:31.738Z,1010.56
2022-08-26T05:26:31.994Z,1010.58
2022-08-26T05:27:32.257Z,1010.61
2022-08-26T05:28:32.495Z,1010.61
2022-08-26T05:29:32.756Z,1010.62
2022-08-26T05:30:33.039Z,1010.57
2022-08-26T05:31:33.365Z,1010.58
2022-08-26T05:32:33.625Z,1010.57
2022-08-26T05:33:33.885Z,1010.59
2022-08-26T05:34:34.194Z,1010.57
2022-08-26T05:35:34.382Z,1010.61
2022-08-26T05:36:34.933Z,1010.57
2022-08-26T05:37:34.946Z,1010.57
2022-08-26T05:38:35.156Z,1010.54
2022-08-26T05:39:35.414Z,1010.57
2022-08-26T05:40:35.759Z,1010.55
2022-08-26T05:41:36.725Z,1010.54
2022-08-26T05:42:36.159Z,1010.55
2022-08-26T05:43:36.403Z,1010.54
2022-08-26T05:44:53.819Z,1010.56
2022-08-26T05:45:40.223Z,1010.58
2022-08-26T05:46:37.238Z,1010.51
2022-08-26T05:47:37.550Z,1010.57
2022-08-26T05:48:37.813Z,1010.49
2022-08-26T05:49:43.763Z,1010.50
2022-08-26T05:50:39.306Z,1010.49
2022-08-26T05:51:38.643Z,1010.49
2022-08-26T05:52:38.910Z,1010.53
2022-08-26T05:53:39.178Z,1010.50
2022-08-26T05:54:39.497Z,1010.46
2022-08-26T05:55:39.668Z,1010.53
2022-08-26T05:56:39.988Z,1010.52
2022-08-26T05:57:42.156Z,1010.51
2022-08-26T05:58:40.561Z,1010.54
2022-08-26T05:59:40.810Z,1010.52
2022-08-26T06:00:41.688Z,1010.48
2022-08-26T06:01:41.416Z,1010.55
2022-08-26T06:02:41.705Z,1010.53
2022-08-26T06:03:41.944Z,1010.54
2022-08-26T06:04:42.202Z,1010.55
2022-08-26T06:05:42.462Z,1010.56
2022-08-26T06:06:42.735Z,1010.53
2022-08-26T06:07:43.023Z,1010.54
2022-08-26T06:08:43.296Z,1010.53
2022-08-26T06:09:43.555Z,1010.50
2022-08-26T06:10:43.827Z,1010.55
2022-08-26T06:11:44.107Z,1010.50
2022-08-26T06:12:44.364Z,1010.51
2022-08-26T06:13:44.610Z,1010.49
2022-08-26T06:14:44.930Z,1010.52
2022-08-26T06:15:45.203Z,1010.55
2022-08-26T06:16:45.449Z,1010.55
2022-08-26T06:17:45.699Z,1010.55
2022-08-26T06:18:45.989Z,1010.52
2022-08-26T06:19:46.263Z,1010.53
2022-08-26T06:20:56.925Z,1010.56
2022-08-26T06:21:47.878Z,1010.58
2022-08-26T06:22:48.143Z,1010.57
2022-08-26T06:23:47.404Z,1010.54
2022-08-26T06:24:47.668Z,1010.55
2022-08-26T06:25:47.937Z,1010.54
2022-08-26T06:26:50.950Z,1010.49
2022-08-26T06:27:48.461Z,1010.50
2022-08-26T06:28:48.715Z,1010.55
2022-08-26T06:29:48.942Z,1010.50
2022-08-26T06:30:49.262Z,1010.56
2022-08-26T06:31:49.504Z,1010.48
2022-08-26T06:32:49.763Z,1010.49
2022-08-26T06:33:50.035Z,1010.55
2022-08-26T06:34:50.312Z,1010.55
2022-08-26T06:35:50.558Z,1010.54
2022-08-26T06:36:50.883Z,1010.57
2022-08-26T06:37:51.113Z,1010.52
2022-08-26T06:38:51.807Z,1010.53
2022-08-26T06:39:51.715Z,1010.52
2022-08-26T06:40:51.950Z,1010.48
2022-08-26T06:41:52.203Z,1010.55
2022-08-26T06:42:52.439Z,1010.53
2022-08-26T06:43:52.694Z,1010.54
2022-08-26T06:44:52.989Z,1010.54
2022-08-26T06:45:53.237Z,1010.50
2022-08-26T06:46:53.464Z,1010.58
2022-08-26T06:47:53.701Z,1010.54
2022-08-26T06:48:54.006Z,1010.52
2022-08-26T06:49:54.263Z,1010.54
2022-08-26T06:50:54.542Z,1010.54
2022-08-26T06:51:54.786Z,1010.54
2022-08-26T06:52:55.169Z,1010.53
2022-08-26T06:53:55.435Z,1010.52
2022-08-26T06:54:55.685Z,1010.52
2022-08-26T06:55:55.930Z,1010.53
2022-08-26T06:56:56.266Z,1010.48
2022-08-26T06:57:56.587Z,1010.52
2022-08-26T06:58:56.868Z,1010.49
2022-08-26T06:59:57.127Z,1010.45
2022-08-26T07:01:01.971Z,1010.49
2022-08-26T07:01:58.729Z,1010.49
2022-08-26T07:02:57.930Z,1010.47
2022-08-26T07:03:58.183Z,1010.46
2022-08-26T07:04:58.451Z,1010.48
2022-08-26T07:05:58.702Z,1010.50
2022-08-26T07:06:58.972Z,1010.47
2022-08-26T07:07:59.265Z,1010.49
2022-08-26T07:08:59.582Z,1010.46
2022-08-26T07:09:59.731Z,1010.50
2022-08-26T07:10:59.972Z,1010.50
2022-08-26T07:12:00.204Z,1010.50
2022-08-26T07:13:00.471Z,1010.48
2022-08-26T07:14:00.734Z,1010.49
2022-08-26T07:15:01.075Z,1010.49
2022-08-26T07:16:02.882Z,1010.45
2022-08-26T07:17:01.678Z,1010.45
2022-08-26T07:18:01.965Z,1010.43
2022-08-26T07:19:03.473Z,1010.45
2022-08-26T07:20:03.496Z,1010.46
2022-08-26T07:21:02.846Z,1010.42
2022-08-26T07:22:03.461Z,1010.44
2022-08-26T07:23:03.359Z,1010.46
2022-08-26T07:24:03.640Z,1010.44
2022-08-26T07:25:03.909Z,1010.42
2022-08-26T07:26:04.246Z,1010.41
2022-08-26T07:27:05.512Z,1010.45
2022-08-26T07:28:04.866Z,1010.41
2022-08-26T07:29:05.125Z,1010.44
2022-08-26T07:30:05.372Z,1010.37
2022-08-26T07:31:05.704Z,1010.39
2022-08-26T07:32:05.873Z,1010.41
2022-08-26T07:33:06.181Z,1010.37
2022-08-26T07:34:06.456Z,1010.37
2022-08-26T07:35:06.717Z,1010.37
2022-08-26T07:36:07.005Z,1010.41
2022-08-26T07:37:08.901Z,1010.36
2022-08-26T07:38:07.557Z,1010.37
2022-08-26T07:39:07.851Z,1010.36
2022-08-26T07:40:08.131Z,1010.35
2022-08-26T07:41:08.429Z,1010.36
2022-08-26T07:42:08.683Z,1010.34
2022-08-26T07:43:09.098Z,1010.33
2022-08-26T07:44:09.239Z,1010.38
2022-08-26T07:45:09.449Z,1010.32
2022-08-26T07:46:13.257Z,1010.33
2022-08-26T07:47:24.654Z,1010.32
2022-08-26T07:48:11.310Z,1010.36
2022-08-26T07:49:10.629Z,1010.32
2022-08-26T07:50:10.893Z,1010.38
2022-08-26T07:51:11.221Z,1010.32
2022-08-26T07:52:11.495Z,1010.34
2022-08-26T07:53:11.704Z,1010.29
2022-08-26T07:54:11.991Z,1010.33
2022-08-26T07:55:12.277Z,1010.30
2022-08-26T07:56:12.494Z,1010.29
2022-08-26T07:57:12.756Z,1010.31
2022-08-26T07:58:13.006Z,1010.33
2022-08-26T07:59:13.695Z,1010.32
2022-08-26T08:00:13.540Z,1010.27
2022-08-26T08:01:13.956Z,1010.25
2022-08-26T08:02:14.859Z,1010.27
2022-08-26T08:03:14.368Z,1010.29
2022-08-26T08:04:14.668Z,1010.23
2022-08-26T08:05:14.940Z,1010.25
2022-08-26T08:06:15.139Z,1010.28
2022-08-26T08:07:15.400Z,1010.25
2022-08-26T08:08:26.988Z,1010.20
2022-08-26T08:09:17.008Z,1010.23
2022-08-26T08:10:16.232Z,1010.21
2022-08-26T08:11:16.500Z,1010.23
2022-08-26T08:12:16.748Z,1010.28
2022-08-26T08:13:17.041Z,1010.24
2022-08-26T08:14:17.372Z,1010.23
2022-08-26T08:15:17.636Z,1010.23
2022-08-26T08:16:17.912Z,1010.23
2022-08-26T08:17:18.164Z,1010.20
2022-08-26T08:18:20.503Z,1010.24
2022-08-26T08:19:18.830Z,1010.20
2022-08-26T08:20:19.081Z,1010.18
2022-08-26T08:21:21.264Z,1010.14
2022-08-26T08:22:19.775Z,1010.11
2022-08-26T08:23:19.748Z,1010.10
2022-08-26T08:24:20.030Z,1010.11
2022-08-26T08:25:20.311Z,1010.10
2022-08-26T08:26:20.565Z,1010.10
2022-08-26T08:27:23.785Z,1010.09
2022-08-26T08:28:21.088Z,1010.10
2022-08-26T08:29:21.382Z,1010.05
2022-08-26T08:30:23.122Z,1010.04
2022-08-26T08:31:52.019Z,1010.02
2022-08-26T08:32:23.201Z,1010.02
2022-08-26T08:33:22.522Z,1010.03
2022-08-26T08:34:22.833Z,1010.05
2022-08-26T08:35:23.030Z,1010.04
2022-08-26T08:36:23.297Z,1009.98
2022-08-26T08:37:23.577Z,1009.99
2022-08-26T08:38:23.833Z,1010.02
2022-08-26T08:39:24.257Z,1010.04
2022-08-26T08:40:24.528Z,1010.03
2022-08-26T08:41:24.823Z,1009.99
2022-08-26T08:42:25.107Z,1009.97
2022-08-26T08:43:25.368Z,1009.93
2022-08-26T08:45:25.862Z,1009.94
2022-08-26T08:46:26.568Z,1009.90
2022-08-26T08:47:26.408Z,1009.95
2022-08-26T08:48:27.910Z,1009.96
2022-08-26T08:49:26.948Z,1009.91
2022-08-26T08:50:27.161Z,1009.89
2022-08-26T08:51:27.429Z,1009.92
2022-08-26T08:52:27.760Z,1009.89
2022-08-26T08:53:28.051Z,1009.85
2022-08-26T08:54:28.315Z,1009.89
2022-08-26T08:55:28.580Z,1009.87
2022-08-26T08:56:28.866Z,1009.88
2022-08-26T08:57:29.086Z,1009.83
2022-08-26T08:58:29.455Z,1009.79
2022-08-26T08:59:29.724Z,1009.82
2022-08-26T09:00:30.590Z,1009.86
2022-08-26T09:01:30.296Z,1009.81
2022-08-26T09:02:31.774Z,1009.76
2022-08-26T09:03:30.842Z,1009.81
2022-08-26T09:04:31.090Z,1009.82
2022-08-26T09:05:31.309Z,1009.78
2022-08-26T09:06:31.592Z,1009.76
2022-08-26T09:07:34.515Z,1009.76
2022-08-26T09:08:32.244Z,1009.78
2022-08-26T09:09:32.463Z,1009.80
2022-08-26T09:10:32.713Z,1009.76
2022-08-26T09:11:32.949Z,1009.79
2022-08-26T09:12:33.204Z,1009.74
2022-08-26T09:13:33.455Z,1009.73
2022-08-26T09:14:33.720Z,1009.71
2022-08-26T09:15:41.597Z,1009.75
2022-08-26T09:16:34.392Z,1009.64
2022-08-26T09:17:34.587Z,1009.70
2022-08-26T09:18:34.879Z,1009.70
2022-08-26T09:19:35.165Z,1009.70
2022-08-26T09:20:35.524Z,1009.64
2022-08-26T09:21:35.739Z,1009.65
2022-08-26T09:22:36.126Z,1009.66
2022-08-26T09:23:36.365Z,1009.65
2022-08-26T09:24:41.642Z,1009.67
2022-08-26T09:25:37.782Z,1009.65
2022-08-26T09:26:37.060Z,1009.61
2022-08-26T09:27:37.693Z,1009.63
2022-08-26T09:28:37.597Z,1009.60
2022-08-26T09:29:37.942Z,1009.60
2022-08-26T09:30:38.294Z,1009.57
2022-08-26T09:31:38.499Z,1009.59
2022-08-26T09:32:38.823Z,1009.52
2022-08-26T09:33:39.056Z,1009.58
2022-08-26T09:34:39.356Z,1009.55
2022-08-26T09:35:39.658Z,1009.56
2022-08-26T09:36:41.464Z,1009.55
2022-08-26T09:37:40.229Z,1009.57
2022-08-26T09:38:40.397Z,1009.58
2022-08-26T09:39:40.695Z,1009.57
2022-08-26T09:40:41.008Z,1009.57
2022-08-26T09:41:41.420Z,1009.57
2022-08-26T09:42:41.717Z,1009.57
2022-08-26T09:43:42.082Z,1009.55
2022-08-26T09:44:42.381Z,1009.45
2022-08-26T09:45:50.147Z,1009.52
2022-08-26T09:46:43.964Z,1009.47
2022-08-26T09:47:43.312Z,1009.49
2022-08-26T09:48:43.613Z,1009.45
2022-08-26T09:49:43.892Z,1009.50
2022-08-26T09:50:44.234Z,1009.44
2022-08-26T09:51:44.481Z,1009.40
2022-08-26T09:52:45.778Z,1009.42
2022-08-26T09:53:44.956Z,1009.44
2022-08-26T09:54:45.470Z,1009.43
2022-08-26T09:55:45.470Z,1009.42
2022-08-26T09:56:45.760Z,1009.42
2022-08-26T09:57:46.050Z,1009.33
2022-08-26T09:58:46.318Z,1009.43
2022-08-26T09:59:46.629Z,1009.45
2022-08-26T10:00:46.967Z,1009.39
2022-08-26T10:01:47.372Z,1009.33
2022-08-26T10:02:49.457Z,1009.35
2022-08-26T10:03:47.813Z,1009.37
2022-08-26T10:04:48.162Z,1009.37
2022-08-26T10:05:48.493Z,1009.29
2022-08-26T10:06:48.834Z,1009.34
2022-08-26T10:07:49.117Z,1009.28
2022-08-26T10:08:49.431Z,1009.34
2022-08-26T10:09:49.675Z,1009.32
2022-08-26T10:10:53.401Z,1009.26
2022-08-26T10:11:50.297Z,1009.27
2022-08-26T10:12:50.576Z,1009.31
2022-08-26T10:13:50.977Z,1009.24
2022-08-26T10:14:51.101Z,1009.24
2022-08-26T10:15:51.391Z,1009.22
2022-08-26T10:16:51.760Z,1009.19
2022-08-26T10:17:51.930Z,1009.13
2022-08-26T10:18:55.670Z,1009.14
2022-08-26T10:19:55.824Z,1009.20
2022-08-26T10:20:52.857Z,1009.11
2022-08-26T10:21:53.148Z,1009.09
2022-08-26T10:22:53.528Z,1009.11
2022-08-26T10:23:53.775Z,1009.15
2022-08-26T10:24:55.253Z,1009.07
2022-08-26T10:25:54.367Z,1009.08
2022-08-26T10:26:54.665Z,1009.01
2022-08-26T10:27:55.695Z,1009.07
2022-08-26T10:28:55.175Z,1009.04
2022-08-26T10:29:55.456Z,1009.01
2022-08-26T10:30:55.768Z,1008.99
2022-08-26T10:31:58.788Z,1008.97
2022-08-26T10:32:57.356Z,1008.94
2022-08-26T10:33:58.879Z,1008.96
2022-08-26T10:34:57.623Z,1008.97
2022-08-26T10:35:57.112Z,1008.93
2022-08-26T10:37:14.355Z,1008.93
2022-08-26T10:37:58.723Z,1008.91
2022-08-26T10:38:58.031Z,1008.95
2022-08-26T10:39:58.561Z,1008.92
2022-08-26T10:40:58.682Z,1008.86
2022-08-26T10:41:58.966Z,1008.93
2022-08-26T10:42:59.275Z,1008.84
2022-08-26T10:43:59.415Z,1008.79
2022-08-26T10:44:59.699Z,1008.82
2022-08-26T10:45:59.964Z,1008.82
2022-08-26T10:47:00.320Z,1008.71
2022-08-26T10:48:00.458Z,1008.73
2022-08-26T10:49:00.749Z,1008.74
2022-08-26T10:50:03.214Z,1008.72
2022-08-26T10:51:01.273Z,1008.73
2022-08-26T10:52:01.630Z,1008.69
2022-08-26T10:53:01.915Z,1008.74
2022-08-26T10:54:02.151Z,1008.72
2022-08-26T10:55:03.107Z,1008.67
2022-08-26T10:56:02.752Z,1008.60
2022-08-26T10:57:03.093Z,1008.62
2022-08-26T10:58:04.932Z,1008.58
2022-08-26T10:59:03.584Z,1008.58
2022-08-26T11:00:04.343Z,1008.54
2022-08-26T11:01:10.115Z,1008.52
2022-08-26T11:02:05.494Z,1008.56
2022-08-26T11:03:04.816Z,1008.58
2022-08-26T11:04:05.111Z,1008.52
2022-08-26T11:05:05.366Z,1008.50
2022-08-26T11:06:05.639Z,1008.45
2022-08-26T11:07:05.959Z,1008.45
2022-08-26T11:08:06.224Z,1008.41
2022-08-26T11:09:06.463Z,1008.35
2022-08-26T11:10:06.763Z,1008.38
2022-08-26T11:11:07.082Z,1008.33
2022-08-26T11:12:10.323Z,1008.32
2022-08-26T11:13:07.712Z,1008.29
2022-08-26T11:14:07.913Z,1008.23
2022-08-26T11:15:08.196Z,1008.26
2022-08-26T11:16:08.507Z,1008.29
2022-08-26T11:17:08.715Z,1008.21
2022-08-26T11:18:09.082Z,1008.15
2022-08-26T11:19:09.343Z,1008.29
2022-08-26T11:20:13.676Z,1008.13
2022-08-26T11:21:10.904Z,1008.16
2022-08-26T11:22:10.253Z,1008.09
2022-08-26T11:23:10.495Z,1008.06
2022-08-26T11:24:10.750Z,1008.21
2022-08-26T11:25:11.454Z,1007.98
2022-08-26T11:26:11.295Z,1007.97
2022-08-26T11:27:12.638Z,1008.01
2022-08-26T11:28:11.839Z,1007.92
2022-08-26T11:29:12.884Z,1007.93
2022-08-26T11:30:12.347Z,1007.91
2022-08-26T11:31:12.574Z,1007.89
2022-08-26T11:32:12.861Z,1007.91
2022-08-26T11:33:13.113Z,1007.86
2022-08-26T11:34:13.423Z,1007.82
2022-08-26T11:35:13.682Z,1007.82
2022-08-26T11:36:13.954Z,1007.82
2022-08-26T11:37:14.263Z,1007.77
2022-08-26T11:38:14.485Z,1007.87
2022-08-26T11:39:14.754Z,1007.74
2022-08-26T11:40:16.027Z,1007.69
2022-08-26T11:41:16.105Z,1007.73
2022-08-26T11:42:15.596Z,1007.71
2022-08-26T11:43:15.860Z,1007.65
2022-08-26T11:44:16.085Z,1007.67
2022-08-26T11:45:16.377Z,1007.66
2022-08-26T11:46:16.694Z,1007.71
2022-08-26T11:47:16.903Z,1007.69
2022-08-26T11:48:17.179Z,1007.66
2022-08-26T11:49:17.441Z,1007.68
2022-08-26T11:50:17.777Z,1007.65
2022-08-26T11:51:18.011Z,1007.61
2022-08-26T11:52:18.301Z,1007.61
2022-08-26T11:53:18.543Z,1007.59
2022-08-26T11:54:30.530Z,1007.59
2022-08-26T11:55:20.145Z,1007.51
2022-08-26T11:56:19.459Z,1007.49
2022-08-26T11:57:19.633Z,1007.43
2022-08-26T11:58:19.976Z,1007.37
2022-08-26T11:59:20.315Z,1007.37
2022-08-26T12:00:22.256Z,1007.38
2022-08-26T12:01:20.895Z,1007.33
2022-08-26T12:02:21.170Z,1007.36
2022-08-26T12:03:21.610Z,1007.32
2022-08-26T12:04:21.787Z,1007.35
2022-08-26T12:05:22.070Z,1007.27
2022-08-26T12:06:22.395Z,1007.34
2022-08-26T12:07:23.980Z,1007.26
2022-08-26T12:08:22.989Z,1007.26
2022-08-26T12:09:23.281Z,1007.29
2022-08-26T12:10:23.522Z,1007.31